sensor_id;sensor_type;location;lat;lon;timestamp;P1;durP1;ratioP1;P2;durP2;ratioP2
68365;SDS011;55283;51.466;5.478;2023-04-15T00:01:18;1.43;;;0.93;;
68365;SDS011;55283;51.466;5.478;2023-04-15T00:03:45;1.02;;;0.93;;
68365;SDS011;55283;51.466;5.478;2023-04-15T00:06:12;2.05;;;0.93;;
68365;SDS011;55283;51.466;5.478;2023-04-15T00:08:38;1.40;;;1.10;;
68365;SDS011;55283;51.466;5.478;2023-04-15T00:11:04;1.10;;;0.98;;
68365;SDS011;55283;51.466;5.478;2023-04-15T00:13:30;1.10;;;1.00;;
68365;SDS011;55283;51.466;5.478;2023-04-15T00:15:58;1.38;;;1.10;;
68365;SDS011;55283;51.466;5.478;2023-04-15T00:18:23;1.00;;;0.90;;
68365;SDS011;55283;51.466;5.478;2023-04-15T00:20:49;1.20;;;1.10;;
68365;SDS011;55283;51.466;5.478;2023-04-15T00:23:14;1.43;;;1.00;;
68365;SDS011;55283;51.466;5.478;2023-04-15T00:25:39;4.97;;;1.10;;
68365;SDS011;55283;51.466;5.478;2023-04-15T00:28:05;0.80;;;0.80;;
68365;SDS011;55283;51.466;5.478;2023-04-15T00:30:30;1.00;;;0.90;;
68365;SDS011;55283;51.466;5.478;2023-04-15T00:32:56;1.10;;;1.00;;
68365;SDS011;55283;51.466;5.478;2023-04-15T00:35:21;0.90;;;0.80;;
68365;SDS011;55283;51.466;5.478;2023-04-15T00:37:47;1.00;;;0.85;;
68365;SDS011;55283;51.466;5.478;2023-04-15T00:40:13;1.57;;;0.90;;
68365;SDS011;55283;51.466;5.478;2023-04-15T00:42:42;1.30;;;1.05;;
68365;SDS011;55283;51.466;5.478;2023-04-15T00:45:08;1.50;;;1.03;;
68365;SDS011;55283;51.466;5.478;2023-04-15T00:47:35;1.10;;;0.90;;
68365;SDS011;55283;51.466;5.478;2023-04-15T00:50:02;1.13;;;1.00;;
68365;SDS011;55283;51.466;5.478;2023-04-15T00:52:27;1.20;;;0.90;;
68365;SDS011;55283;51.466;5.478;2023-04-15T00:54:52;1.10;;;1.00;;
68365;SDS011;55283;51.466;5.478;2023-04-15T00:57:19;1.50;;;1.10;;
68365;SDS011;55283;51.466;5.478;2023-04-15T00:59:45;1.20;;;1.10;;
68365;SDS011;55283;51.466;5.478;2023-04-15T01:02:11;1.58;;;0.98;;
68365;SDS011;55283;51.466;5.478;2023-04-15T01:04:36;1.13;;;1.00;;
68365;SDS011;55283;51.466;5.478;2023-04-15T01:07:02;4.20;;;1.00;;
68365;SDS011;55283;51.466;5.478;2023-04-15T01:09:27;1.47;;;1.10;;
68365;SDS011;55283;51.466;5.478;2023-04-15T01:11:53;2.10;;;1.10;;
68365;SDS011;55283;51.466;5.478;2023-04-15T01:14:19;1.20;;;1.00;;
68365;SDS011;55283;51.466;5.478;2023-04-15T01:16:45;1.47;;;1.10;;
68365;SDS011;55283;51.466;5.478;2023-04-15T01:19:10;1.75;;;1.10;;
68365;SDS011;55283;51.466;5.478;2023-04-15T01:21:40;2.07;;;1.20;;
68365;SDS011;55283;51.466;5.478;2023-04-15T01:24:07;1.23;;;1.05;;
68365;SDS011;55283;51.466;5.478;2023-04-15T01:26:37;1.38;;;1.00;;
68365;SDS011;55283;51.466;5.478;2023-04-15T01:29:03;1.33;;;1.20;;
68365;SDS011;55283;51.466;5.478;2023-04-15T01:31:29;2.47;;;1.10;;
68365;SDS011;55283;51.466;5.478;2023-04-15T01:33:55;1.10;;;1.00;;
68365;SDS011;55283;51.466;5.478;2023-04-15T01:36:20;1.07;;;0.93;;
68365;SDS011;55283;51.466;5.478;2023-04-15T01:38:46;1.02;;;0.95;;
68365;SDS011;55283;51.466;5.478;2023-04-15T01:41:12;1.27;;;1.00;;
68365;SDS011;55283;51.466;5.478;2023-04-15T01:43:38;1.67;;;1.10;;
68365;SDS011;55283;51.466;5.478;2023-04-15T01:46:04;1.37;;;0.90;;
68365;SDS011;55283;51.466;5.478;2023-04-15T01:48:30;1.13;;;1.00;;
68365;SDS011;55283;51.466;5.478;2023-04-15T01:50:56;1.10;;;0.93;;
68365;SDS011;55283;51.466;5.478;2023-04-15T01:53:22;1.52;;;1.10;;
68365;SDS011;55283;51.466;5.478;2023-04-15T01:55:49;1.00;;;0.90;;
68365;SDS011;55283;51.466;5.478;2023-04-15T01:58:16;1.10;;;1.00;;
68365;SDS011;55283;51.466;5.478;2023-04-15T02:00:41;0.97;;;0.90;;
68365;SDS011;55283;51.466;5.478;2023-04-15T02:03:07;1.48;;;0.80;;
68365;SDS011;55283;51.466;5.478;2023-04-15T02:05:33;1.40;;;0.90;;
68365;SDS011;55283;51.466;5.478;2023-04-15T02:07:59;2.20;;;1.10;;
68365;SDS011;55283;51.466;5.478;2023-04-15T02:10:25;0.90;;;0.90;;
68365;SDS011;55283;51.466;5.478;2023-04-15T02:12:50;1.35;;;1.00;;
68365;SDS011;55283;51.466;5.478;2023-04-15T02:15:15;1.17;;;1.00;;
68365;SDS011;55283;51.466;5.478;2023-04-15T02:17:41;1.10;;;1.00;;
68365;SDS011;55283;51.466;5.478;2023-04-15T02:20:09;1.00;;;0.80;;
68365;SDS011;55283;51.466;5.478;2023-04-15T02:22:35;1.00;;;0.90;;
68365;SDS011;55283;51.466;5.478;2023-04-15T02:25:01;1.60;;;1.10;;
68365;SDS011;55283;51.466;5.478;2023-04-15T02:27:26;1.43;;;1.00;;
68365;SDS011;55283;51.466;5.478;2023-04-15T02:29:52;1.40;;;1.00;;
68365;SDS011;55283;51.466;5.478;2023-04-15T02:32:18;1.10;;;1.00;;
68365;SDS011;55283;51.466;5.478;2023-04-15T02:34:44;1.40;;;1.02;;
68365;SDS011;55283;51.466;5.478;2023-04-15T02:37:11;1.30;;;1.10;;
68365;SDS011;55283;51.466;5.478;2023-04-15T02:39:37;1.03;;;0.93;;
68365;SDS011;55283;51.466;5.478;2023-04-15T02:42:03;1.20;;;1.10;;
68365;SDS011;55283;51.466;5.478;2023-04-15T02:44:30;1.30;;;1.10;;
68365;SDS011;55283;51.466;5.478;2023-04-15T02:46:56;1.20;;;1.00;;
68365;SDS011;55283;51.466;5.478;2023-04-15T02:49:23;1.15;;;1.05;;
68365;SDS011;55283;51.466;5.478;2023-04-15T02:51:49;1.38;;;1.10;;
68365;SDS011;55283;51.466;5.478;2023-04-15T02:54:18;1.20;;;1.00;;
68365;SDS011;55283;51.466;5.478;2023-04-15T02:56:44;1.10;;;0.95;;
68365;SDS011;55283;51.466;5.478;2023-04-15T02:59:11;1.07;;;0.90;;
68365;SDS011;55283;51.466;5.478;2023-04-15T03:01:37;1.10;;;1.00;;
68365;SDS011;55283;51.466;5.478;2023-04-15T03:04:02;1.05;;;0.95;;
68365;SDS011;55283;51.466;5.478;2023-04-15T03:06:28;1.43;;;1.13;;
68365;SDS011;55283;51.466;5.478;2023-04-15T03:08:53;1.37;;;0.90;;
68365;SDS011;55283;51.466;5.478;2023-04-15T03:11:18;0.90;;;0.90;;
68365;SDS011;55283;51.466;5.478;2023-04-15T03:13:45;1.33;;;0.90;;
68365;SDS011;55283;51.466;5.478;2023-04-15T03:16:11;1.17;;;1.00;;
68365;SDS011;55283;51.466;5.478;2023-04-15T03:18:36;1.70;;;1.00;;
68365;SDS011;55283;51.466;5.478;2023-04-15T03:21:02;1.13;;;0.90;;
68365;SDS011;55283;51.466;5.478;2023-04-15T03:23:29;0.97;;;0.93;;
68365;SDS011;55283;51.466;5.478;2023-04-15T03:25:55;1.33;;;1.23;;
68365;SDS011;55283;51.466;5.478;2023-04-15T03:28:22;1.10;;;1.00;;
68365;SDS011;55283;51.466;5.478;2023-04-15T03:30:47;1.10;;;1.00;;
68365;SDS011;55283;51.466;5.478;2023-04-15T03:33:13;1.27;;;1.00;;
68365;SDS011;55283;51.466;5.478;2023-04-15T03:35:38;1.20;;;1.03;;
68365;SDS011;55283;51.466;5.478;2023-04-15T03:38:03;1.00;;;0.90;;
68365;SDS011;55283;51.466;5.478;2023-04-15T03:40:29;1.00;;;0.90;;
68365;SDS011;55283;51.466;5.478;2023-04-15T03:42:54;1.30;;;1.00;;
68365;SDS011;55283;51.466;5.478;2023-04-15T03:45:20;1.00;;;0.90;;
68365;SDS011;55283;51.466;5.478;2023-04-15T03:47:45;1.20;;;0.80;;
68365;SDS011;55283;51.466;5.478;2023-04-15T03:50:11;1.10;;;1.00;;
68365;SDS011;55283;51.466;5.478;2023-04-15T03:52:36;1.27;;;1.10;;
68365;SDS011;55283;51.466;5.478;2023-04-15T03:55:02;1.40;;;1.02;;
68365;SDS011;55283;51.466;5.478;2023-04-15T03:57:27;1.17;;;1.00;;
68365;SDS011;55283;51.466;5.478;2023-04-15T03:59:53;1.10;;;1.00;;
68365;SDS011;55283;51.466;5.478;2023-04-15T04:02:18;1.10;;;1.00;;
68365;SDS011;55283;51.466;5.478;2023-04-15T04:04:43;1.13;;;0.97;;
68365;SDS011;55283;51.466;5.478;2023-04-15T04:07:13;1.48;;;0.90;;
68365;SDS011;55283;51.466;5.478;2023-04-15T04:09:42;0.90;;;0.80;;
68365;SDS011;55283;51.466;5.478;2023-04-15T04:12:07;1.23;;;1.10;;
68365;SDS011;55283;51.466;5.478;2023-04-15T04:14:33;1.10;;;1.00;;
68365;SDS011;55283;51.466;5.478;2023-04-15T04:16:58;1.20;;;1.10;;
68365;SDS011;55283;51.466;5.478;2023-04-15T04:19:23;1.10;;;1.00;;
68365;SDS011;55283;51.466;5.478;2023-04-15T04:21:49;1.20;;;1.00;;
68365;SDS011;55283;51.466;5.478;2023-04-15T04:24:15;1.77;;;1.20;;
68365;SDS011;55283;51.466;5.478;2023-04-15T04:26:40;1.10;;;0.90;;
68365;SDS011;55283;51.466;5.478;2023-04-15T04:29:06;1.63;;;1.10;;
68365;SDS011;55283;51.466;5.478;2023-04-15T04:31:32;1.05;;;1.00;;
68365;SDS011;55283;51.466;5.478;2023-04-15T04:33:57;1.20;;;1.10;;
68365;SDS011;55283;51.466;5.478;2023-04-15T04:36:22;1.55;;;0.90;;
68365;SDS011;55283;51.466;5.478;2023-04-15T04:38:48;1.13;;;1.03;;
68365;SDS011;55283;51.466;5.478;2023-04-15T04:41:13;1.33;;;1.20;;
68365;SDS011;55283;51.466;5.478;2023-04-15T04:43:39;1.10;;;1.00;;
68365;SDS011;55283;51.466;5.478;2023-04-15T04:46:04;1.20;;;1.10;;
68365;SDS011;55283;51.466;5.478;2023-04-15T04:48:29;1.50;;;1.10;;
68365;SDS011;55283;51.466;5.478;2023-04-15T04:50:55;1.50;;;1.10;;
68365;SDS011;55283;51.466;5.478;2023-04-15T04:53:20;1.27;;;1.00;;
68365;SDS011;55283;51.466;5.478;2023-04-15T04:55:46;0.93;;;0.93;;
68365;SDS011;55283;51.466;5.478;2023-04-15T04:58:11;1.33;;;1.00;;
68365;SDS011;55283;51.466;5.478;2023-04-15T05:00:37;0.93;;;0.93;;
68365;SDS011;55283;51.466;5.478;2023-04-15T05:03:03;1.00;;;0.90;;
68365;SDS011;55283;51.466;5.478;2023-04-15T05:05:29;1.47;;;1.10;;
68365;SDS011;55283;51.466;5.478;2023-04-15T05:07:54;1.10;;;1.00;;
68365;SDS011;55283;51.466;5.478;2023-04-15T05:10:20;1.33;;;1.00;;
68365;SDS011;55283;51.466;5.478;2023-04-15T05:12:45;1.13;;;0.90;;
68365;SDS011;55283;51.466;5.478;2023-04-15T05:15:11;1.17;;;1.00;;
68365;SDS011;55283;51.466;5.478;2023-04-15T05:17:36;1.27;;;1.17;;
68365;SDS011;55283;51.466;5.478;2023-04-15T05:20:02;1.13;;;0.90;;
68365;SDS011;55283;51.466;5.478;2023-04-15T05:22:28;1.00;;;0.90;;
68365;SDS011;55283;51.466;5.478;2023-04-15T05:24:53;1.17;;;1.07;;
68365;SDS011;55283;51.466;5.478;2023-04-15T05:27:18;0.90;;;0.90;;
68365;SDS011;55283;51.466;5.478;2023-04-15T05:29:44;1.75;;;1.05;;
68365;SDS011;55283;51.466;5.478;2023-04-15T05:32:09;1.20;;;1.00;;
68365;SDS011;55283;51.466;5.478;2023-04-15T05:34:35;1.10;;;0.90;;
68365;SDS011;55283;51.466;5.478;2023-04-15T05:37:01;0.98;;;0.90;;
68365;SDS011;55283;51.466;5.478;2023-04-15T05:39:26;1.80;;;1.30;;
68365;SDS011;55283;51.466;5.478;2023-04-15T05:41:52;1.50;;;1.30;;
68365;SDS011;55283;51.466;5.478;2023-04-15T05:44:17;1.88;;;1.10;;
68365;SDS011;55283;51.466;5.478;2023-04-15T05:46:43;2.30;;;1.10;;
68365;SDS011;55283;51.466;5.478;2023-04-15T05:49:08;1.67;;;0.90;;
68365;SDS011;55283;51.466;5.478;2023-04-15T05:51:33;2.03;;;1.17;;
68365;SDS011;55283;51.466;5.478;2023-04-15T05:53:59;1.47;;;1.10;;
68365;SDS011;55283;51.466;5.478;2023-04-15T05:56:25;2.13;;;1.13;;
68365;SDS011;55283;51.466;5.478;2023-04-15T05:58:51;2.10;;;1.00;;
68365;SDS011;55283;51.466;5.478;2023-04-15T06:01:17;7.85;;;1.20;;
68365;SDS011;55283;51.466;5.478;2023-04-15T06:03:42;1.93;;;1.10;;
68365;SDS011;55283;51.466;5.478;2023-04-15T06:06:08;1.23;;;1.10;;
68365;SDS011;55283;51.466;5.478;2023-04-15T06:08:34;3.30;;;1.40;;
68365;SDS011;55283;51.466;5.478;2023-04-15T06:11:00;2.83;;;1.15;;
68365;SDS011;55283;51.466;5.478;2023-04-15T06:13:25;7.53;;;1.20;;
68365;SDS011;55283;51.466;5.478;2023-04-15T06:15:51;3.47;;;1.57;;
68365;SDS011;55283;51.466;5.478;2023-04-15T06:18:17;9.43;;;1.40;;
68365;SDS011;55283;51.466;5.478;2023-04-15T06:20:44;6.18;;;1.52;;
68365;SDS011;55283;51.466;5.478;2023-04-15T06:23:10;6.57;;;1.23;;
68365;SDS011;55283;51.466;5.478;2023-04-15T06:25:36;7.27;;;3.00;;
68365;SDS011;55283;51.466;5.478;2023-04-15T06:28:01;7.13;;;4.28;;
68365;SDS011;55283;51.466;5.478;2023-04-15T06:30:27;8.00;;;5.07;;
68365;SDS011;55283;51.466;5.478;2023-04-15T06:32:52;6.10;;;4.93;;
68365;SDS011;55283;51.466;5.478;2023-04-15T06:35:19;8.13;;;5.38;;
68365;SDS011;55283;51.466;5.478;2023-04-15T06:37:44;6.63;;;5.07;;
68365;SDS011;55283;51.466;5.478;2023-04-15T06:40:10;6.47;;;5.70;;
68365;SDS011;55283;51.466;5.478;2023-04-15T06:42:36;8.68;;;5.25;;
68365;SDS011;55283;51.466;5.478;2023-04-15T06:45:02;7.90;;;5.13;;
68365;SDS011;55283;51.466;5.478;2023-04-15T06:47:28;7.07;;;5.63;;
68365;SDS011;55283;51.466;5.478;2023-04-15T06:49:53;7.75;;;6.00;;
68365;SDS011;55283;51.466;5.478;2023-04-15T06:52:18;6.90;;;5.10;;
68365;SDS011;55283;51.466;5.478;2023-04-15T06:54:44;6.63;;;5.50;;
68365;SDS011;55283;51.466;5.478;2023-04-15T06:57:09;8.00;;;5.67;;
68365;SDS011;55283;51.466;5.478;2023-04-15T06:59:35;5.88;;;4.70;;
68365;SDS011;55283;51.466;5.478;2023-04-15T07:02:00;7.00;;;5.03;;
68365;SDS011;55283;51.466;5.478;2023-04-15T07:04:26;6.97;;;5.50;;
68365;SDS011;55283;51.466;5.478;2023-04-15T07:06:54;6.32;;;5.15;;
68365;SDS011;55283;51.466;5.478;2023-04-15T07:09:20;7.70;;;5.13;;
68365;SDS011;55283;51.466;5.478;2023-04-15T07:11:46;5.78;;;4.35;;
68365;SDS011;55283;51.466;5.478;2023-04-15T07:14:12;5.67;;;4.23;;
68365;SDS011;55283;51.466;5.478;2023-04-15T07:16:37;4.55;;;3.60;;
68365;SDS011;55283;51.466;5.478;2023-04-15T07:19:02;5.60;;;3.60;;
68365;SDS011;55283;51.466;5.478;2023-04-15T07:21:28;4.85;;;3.42;;
68365;SDS011;55283;51.466;5.478;2023-04-15T07:23:53;4.03;;;3.03;;
68365;SDS011;55283;51.466;5.478;2023-04-15T07:26:19;4.67;;;3.20;;
68365;SDS011;55283;51.466;5.478;2023-04-15T07:28:44;6.63;;;2.73;;
68365;SDS011;55283;51.466;5.478;2023-04-15T07:31:11;4.15;;;2.80;;
68365;SDS011;55283;51.466;5.478;2023-04-15T07:33:36;4.07;;;2.40;;
68365;SDS011;55283;51.466;5.478;2023-04-15T07:36:02;3.67;;;2.30;;
68365;SDS011;55283;51.466;5.478;2023-04-15T07:38:27;3.33;;;2.00;;
68365;SDS011;55283;51.466;5.478;2023-04-15T07:40:53;3.58;;;1.90;;
68365;SDS011;55283;51.466;5.478;2023-04-15T07:43:19;3.40;;;2.10;;
68365;SDS011;55283;51.466;5.478;2023-04-15T07:45:45;2.65;;;2.00;;
68365;SDS011;55283;51.466;5.478;2023-04-15T07:48:10;3.43;;;1.93;;
68365;SDS011;55283;51.466;5.478;2023-04-15T07:50:36;2.37;;;1.70;;
68365;SDS011;55283;51.466;5.478;2023-04-15T07:53:02;2.63;;;1.65;;
68365;SDS011;55283;51.466;5.478;2023-04-15T07:55:28;2.83;;;1.70;;
68365;SDS011;55283;51.466;5.478;2023-04-15T07:57:54;2.60;;;1.60;;
68365;SDS011;55283;51.466;5.478;2023-04-15T08:00:20;2.35;;;1.48;;
68365;SDS011;55283;51.466;5.478;2023-04-15T08:02:46;2.27;;;1.50;;
68365;SDS011;55283;51.466;5.478;2023-04-15T08:05:12;3.25;;;1.63;;
68365;SDS011;55283;51.466;5.478;2023-04-15T08:07:38;2.70;;;1.60;;
68365;SDS011;55283;51.466;5.478;2023-04-15T08:10:04;2.37;;;1.43;;
68365;SDS011;55283;51.466;5.478;2023-04-15T08:12:30;2.85;;;1.40;;
68365;SDS011;55283;51.466;5.478;2023-04-15T08:14:56;3.67;;;1.50;;
68365;SDS011;55283;51.466;5.478;2023-04-15T08:17:21;2.30;;;1.70;;
68365;SDS011;55283;51.466;5.478;2023-04-15T08:19:47;1.90;;;1.50;;
68365;SDS011;55283;51.466;5.478;2023-04-15T08:22:12;3.60;;;1.70;;
68365;SDS011;55283;51.466;5.478;2023-04-15T08:24:38;1.70;;;1.45;;
68365;SDS011;55283;51.466;5.478;2023-04-15T08:27:04;1.90;;;1.37;;
68365;SDS011;55283;51.466;5.478;2023-04-15T08:29:33;3.20;;;1.33;;
68365;SDS011;55283;51.466;5.478;2023-04-15T08:31:59;3.35;;;1.40;;
68365;SDS011;55283;51.466;5.478;2023-04-15T08:34:25;2.93;;;1.30;;
68365;SDS011;55283;51.466;5.478;2023-04-15T08:36:51;1.95;;;1.20;;
68365;SDS011;55283;51.466;5.478;2023-04-15T08:39:17;2.15;;;1.50;;
68365;SDS011;55283;51.466;5.478;2023-04-15T08:41:51;1.33;;;1.10;;
68365;SDS011;55283;51.466;5.478;2023-04-15T08:44:20;2.50;;;1.23;;
68365;SDS011;55283;51.466;5.478;2023-04-15T08:46:47;2.07;;;1.40;;
68365;SDS011;55283;51.466;5.478;2023-04-15T08:49:14;2.53;;;1.30;;
68365;SDS011;55283;51.466;5.478;2023-04-15T08:51:41;1.85;;;1.20;;
68365;SDS011;55283;51.466;5.478;2023-04-15T08:54:07;1.33;;;1.20;;
68365;SDS011;55283;51.466;5.478;2023-04-15T08:56:35;1.65;;;1.20;;
68365;SDS011;55283;51.466;5.478;2023-04-15T08:59:03;2.13;;;1.30;;
68365;SDS011;55283;51.466;5.478;2023-04-15T09:01:29;1.95;;;1.30;;
68365;SDS011;55283;51.466;5.478;2023-04-15T09:03:56;1.63;;;1.40;;
68365;SDS011;55283;51.466;5.478;2023-04-15T09:06:23;1.40;;;1.20;;
68365;SDS011;55283;51.466;5.478;2023-04-15T09:08:51;1.60;;;1.30;;
68365;SDS011;55283;51.466;5.478;2023-04-15T09:11:17;2.53;;;1.27;;
68365;SDS011;55283;51.466;5.478;2023-04-15T09:13:43;1.63;;;1.30;;
68365;SDS011;55283;51.466;5.478;2023-04-15T09:16:09;1.40;;;1.20;;
68365;SDS011;55283;51.466;5.478;2023-04-15T09:18:35;2.00;;;1.20;;
68365;SDS011;55283;51.466;5.478;2023-04-15T09:21:05;1.75;;;1.20;;
68365;SDS011;55283;51.466;5.478;2023-04-15T09:23:35;5.00;;;1.37;;
68365;SDS011;55283;51.466;5.478;2023-04-15T09:26:03;2.28;;;1.35;;
68365;SDS011;55283;51.466;5.478;2023-04-15T09:28:29;1.88;;;1.35;;
68365;SDS011;55283;51.466;5.478;2023-04-15T09:30:59;1.93;;;1.30;;
68365;SDS011;55283;51.466;5.478;2023-04-15T09:33:26;1.75;;;1.10;;
68365;SDS011;55283;51.466;5.478;2023-04-15T09:35:57;1.10;;;1.00;;
68365;SDS011;55283;51.466;5.478;2023-04-15T09:38:27;3.33;;;1.27;;
68365;SDS011;55283;51.466;5.478;2023-04-15T09:40:53;1.50;;;1.20;;
68365;SDS011;55283;51.466;5.478;2023-04-15T09:43:18;2.03;;;1.20;;
68365;SDS011;55283;51.466;5.478;2023-04-15T09:45:48;1.30;;;1.20;;
68365;SDS011;55283;51.466;5.478;2023-04-15T09:50:48;1.30;;;1.20;;
68365;SDS011;55283;51.466;5.478;2023-04-15T09:53:15;2.27;;;1.20;;
68365;SDS011;55283;51.466;5.478;2023-04-15T09:55:46;1.75;;;1.30;;
68365;SDS011;55283;51.466;5.478;2023-04-15T09:58:18;1.70;;;1.20;;
68365;SDS011;55283;51.466;5.478;2023-04-15T10:00:46;1.40;;;1.20;;
68365;SDS011;55283;51.466;5.478;2023-04-15T10:03:14;1.73;;;1.40;;
68365;SDS011;55283;51.466;5.478;2023-04-15T10:05:49;2.65;;;1.20;;
68365;SDS011;55283;51.466;5.478;2023-04-15T10:08:17;2.22;;;1.40;;
68365;SDS011;55283;51.466;5.478;2023-04-15T10:10:44;1.50;;;1.27;;
68365;SDS011;55283;51.466;5.478;2023-04-15T10:13:16;1.50;;;1.40;;
68365;SDS011;55283;51.466;5.478;2023-04-15T10:15:44;3.20;;;1.38;;
68365;SDS011;55283;51.466;5.478;2023-04-15T10:18:16;2.20;;;1.70;;
68365;SDS011;55283;51.466;5.478;2023-04-15T10:20:45;1.48;;;1.38;;
68365;SDS011;55283;51.466;5.478;2023-04-15T10:23:11;1.98;;;1.50;;
68365;SDS011;55283;51.466;5.478;2023-04-15T10:25:37;1.97;;;1.50;;
68365;SDS011;55283;51.466;5.478;2023-04-15T10:28:03;1.65;;;1.30;;
68365;SDS011;55283;51.466;5.478;2023-04-15T10:30:31;3.37;;;1.40;;
68365;SDS011;55283;51.466;5.478;2023-04-15T10:32:58;2.55;;;1.23;;
68365;SDS011;55283;51.466;5.478;2023-04-15T10:35:25;2.20;;;1.45;;
68365;SDS011;55283;51.466;5.478;2023-04-15T10:37:51;1.77;;;1.20;;
68365;SDS011;55283;51.466;5.478;2023-04-15T10:40:23;3.45;;;1.20;;
68365;SDS011;55283;51.466;5.478;2023-04-15T10:43:02;4.47;;;1.27;;
68365;SDS011;55283;51.466;5.478;2023-04-15T10:45:31;2.08;;;1.10;;
68365;SDS011;55283;51.466;5.478;2023-04-15T10:48:01;1.38;;;1.27;;
68365;SDS011;55283;51.466;5.478;2023-04-15T10:50:29;1.48;;;1.10;;
68365;SDS011;55283;51.466;5.478;2023-04-15T10:52:55;1.30;;;1.00;;
68365;SDS011;55283;51.466;5.478;2023-04-15T10:55:22;0.98;;;0.90;;
68365;SDS011;55283;51.466;5.478;2023-04-15T10:57:52;1.88;;;1.00;;
68365;SDS011;55283;51.466;5.478;2023-04-15T11:00:18;1.53;;;1.00;;
68365;SDS011;55283;51.466;5.478;2023-04-15T11:02:58;1.70;;;1.10;;
68365;SDS011;55283;51.466;5.478;2023-04-15T11:05:49;1.67;;;1.00;;
68365;SDS011;55283;51.466;5.478;2023-04-15T11:08:18;3.63;;;1.20;;
68365;SDS011;55283;51.466;5.478;2023-04-15T11:15:39;2.13;;;1.00;;
68365;SDS011;55283;51.466;5.478;2023-04-15T11:20:37;2.78;;;1.00;;
68365;SDS011;55283;51.466;5.478;2023-04-15T11:23:04;0.85;;;0.85;;
68365;SDS011;55283;51.466;5.478;2023-04-15T11:25:31;1.23;;;1.03;;
68365;SDS011;55283;51.466;5.478;2023-04-15T11:27:58;1.77;;;1.00;;
68365;SDS011;55283;51.466;5.478;2023-04-15T11:30:25;1.00;;;0.90;;
68365;SDS011;55283;51.466;5.478;2023-04-15T11:33:06;2.40;;;0.90;;
68365;SDS011;55283;51.466;5.478;2023-04-15T11:35:33;1.05;;;1.00;;
68365;SDS011;55283;51.466;5.478;2023-04-15T11:38:03;2.63;;;1.10;;
68365;SDS011;55283;51.466;5.478;2023-04-15T11:40:32;1.70;;;1.10;;
68365;SDS011;55283;51.466;5.478;2023-04-15T11:43:09;1.73;;;1.00;;
68365;SDS011;55283;51.466;5.478;2023-04-15T11:45:47;1.35;;;1.00;;
68365;SDS011;55283;51.466;5.478;2023-04-15T11:48:14;0.90;;;0.90;;
68365;SDS011;55283;51.466;5.478;2023-04-15T11:50:39;0.70;;;0.70;;
68365;SDS011;55283;51.466;5.478;2023-04-15T11:53:09;4.47;;;0.95;;
68365;SDS011;55283;51.466;5.478;2023-04-15T11:55:46;1.33;;;1.10;;
68365;SDS011;55283;51.466;5.478;2023-04-15T12:00:40;1.88;;;1.10;;
68365;SDS011;55283;51.466;5.478;2023-04-15T12:03:12;2.17;;;1.30;;
68365;SDS011;55283;51.466;5.478;2023-04-15T12:11:32;2.17;;;1.35;;
68365;SDS011;55283;51.466;5.478;2023-04-15T12:16:36;5.57;;;1.13;;
68365;SDS011;55283;51.466;5.478;2023-04-15T12:19:05;1.67;;;1.10;;
68365;SDS011;55283;51.466;5.478;2023-04-15T12:21:33;1.50;;;1.30;;
68365;SDS011;55283;51.466;5.478;2023-04-15T12:24:02;1.80;;;1.48;;
68365;SDS011;55283;51.466;5.478;2023-04-15T12:26:30;1.88;;;1.17;;
68365;SDS011;55283;51.466;5.478;2023-04-15T12:29:00;1.77;;;1.50;;
68365;SDS011;55283;51.466;5.478;2023-04-15T12:31:31;1.97;;;1.40;;
68365;SDS011;55283;51.466;5.478;2023-04-15T12:33:57;3.70;;;1.52;;
68365;SDS011;55283;51.466;5.478;2023-04-15T12:36:24;2.28;;;1.20;;
68365;SDS011;55283;51.466;5.478;2023-04-15T12:38:50;4.33;;;1.30;;
68365;SDS011;55283;51.466;5.478;2023-04-15T12:41:16;2.45;;;1.40;;
68365;SDS011;55283;51.466;5.478;2023-04-15T12:43:43;3.03;;;1.10;;
68365;SDS011;55283;51.466;5.478;2023-04-15T12:46:09;2.53;;;1.40;;
68365;SDS011;55283;51.466;5.478;2023-04-15T12:48:35;1.67;;;1.20;;
68365;SDS011;55283;51.466;5.478;2023-04-15T12:51:00;1.83;;;1.10;;
68365;SDS011;55283;51.466;5.478;2023-04-15T12:53:26;2.03;;;1.13;;
68365;SDS011;55283;51.466;5.478;2023-04-15T12:55:52;1.93;;;1.10;;
68365;SDS011;55283;51.466;5.478;2023-04-15T12:58:18;2.22;;;1.20;;
68365;SDS011;55283;51.466;5.478;2023-04-15T13:00:43;2.37;;;1.30;;
68365;SDS011;55283;51.466;5.478;2023-04-15T13:03:09;2.13;;;1.40;;
68365;SDS011;55283;51.466;5.478;2023-04-15T13:05:34;1.10;;;0.90;;
68365;SDS011;55283;51.466;5.478;2023-04-15T13:08:01;3.03;;;1.03;;
68365;SDS011;55283;51.466;5.478;2023-04-15T13:10:28;1.15;;;1.05;;
68365;SDS011;55283;51.466;5.478;2023-04-15T13:12:53;1.15;;;1.05;;
68365;SDS011;55283;51.466;5.478;2023-04-15T13:15:20;1.90;;;1.00;;
68365;SDS011;55283;51.466;5.478;2023-04-15T13:17:46;1.25;;;1.10;;
68365;SDS011;55283;51.466;5.478;2023-04-15T13:20:12;1.33;;;1.03;;
68365;SDS011;55283;51.466;5.478;2023-04-15T13:22:38;1.83;;;1.20;;
68365;SDS011;55283;51.466;5.478;2023-04-15T13:25:04;1.48;;;1.10;;
68365;SDS011;55283;51.466;5.478;2023-04-15T13:27:29;1.37;;;1.13;;
68365;SDS011;55283;51.466;5.478;2023-04-15T13:29:55;1.02;;;0.95;;
68365;SDS011;55283;51.466;5.478;2023-04-15T13:32:21;2.43;;;1.10;;
68365;SDS011;55283;51.466;5.478;2023-04-15T13:34:46;1.05;;;0.98;;
68365;SDS011;55283;51.466;5.478;2023-04-15T13:37:12;1.40;;;1.00;;
68365;SDS011;55283;51.466;5.478;2023-04-15T13:39:37;1.40;;;1.00;;
68365;SDS011;55283;51.466;5.478;2023-04-15T13:42:03;1.27;;;0.80;;
68365;SDS011;55283;51.466;5.478;2023-04-15T13:44:29;2.00;;;1.20;;
68365;SDS011;55283;51.466;5.478;2023-04-15T13:46:54;2.73;;;1.07;;
68365;SDS011;55283;51.466;5.478;2023-04-15T13:49:20;1.00;;;0.90;;
68365;SDS011;55283;51.466;5.478;2023-04-15T13:51:45;1.13;;;0.90;;
68365;SDS011;55283;51.466;5.478;2023-04-15T13:54:11;1.10;;;0.93;;
68365;SDS011;55283;51.466;5.478;2023-04-15T13:56:36;1.00;;;0.90;;
68365;SDS011;55283;51.466;5.478;2023-04-15T13:59:02;3.05;;;0.93;;
68365;SDS011;55283;51.466;5.478;2023-04-15T14:01:27;1.50;;;1.00;;
68365;SDS011;55283;51.466;5.478;2023-04-15T14:03:53;1.05;;;0.88;;
68365;SDS011;55283;51.466;5.478;2023-04-15T14:06:19;1.20;;;0.90;;
68365;SDS011;55283;51.466;5.478;2023-04-15T14:08:45;0.95;;;0.90;;
68365;SDS011;55283;51.466;5.478;2023-04-15T14:11:11;1.10;;;1.00;;
68365;SDS011;55283;51.466;5.478;2023-04-15T14:13:36;1.10;;;1.00;;
68365;SDS011;55283;51.466;5.478;2023-04-15T14:16:01;1.00;;;0.90;;
68365;SDS011;55283;51.466;5.478;2023-04-15T14:18:27;1.10;;;0.90;;
68365;SDS011;55283;51.466;5.478;2023-04-15T14:20:54;0.90;;;0.90;;
68365;SDS011;55283;51.466;5.478;2023-04-15T14:23:19;1.73;;;1.00;;
68365;SDS011;55283;51.466;5.478;2023-04-15T14:25:44;1.30;;;0.90;;
68365;SDS011;55283;51.466;5.478;2023-04-15T14:28:10;1.38;;;0.90;;
68365;SDS011;55283;51.466;5.478;2023-04-15T14:30:35;1.70;;;1.10;;
68365;SDS011;55283;51.466;5.478;2023-04-15T14:33:01;1.20;;;1.00;;
68365;SDS011;55283;51.466;5.478;2023-04-15T14:35:26;1.37;;;1.00;;
68365;SDS011;55283;51.466;5.478;2023-04-15T14:37:52;1.80;;;0.98;;
68365;SDS011;55283;51.466;5.478;2023-04-15T14:40:18;1.05;;;0.77;;
68365;SDS011;55283;51.466;5.478;2023-04-15T14:42:44;1.47;;;0.90;;
68365;SDS011;55283;51.466;5.478;2023-04-15T14:45:09;1.07;;;0.90;;
68365;SDS011;55283;51.466;5.478;2023-04-15T14:47:35;1.05;;;0.80;;
68365;SDS011;55283;51.466;5.478;2023-04-15T14:50:00;1.10;;;0.80;;
68365;SDS011;55283;51.466;5.478;2023-04-15T14:52:26;2.53;;;0.90;;
68365;SDS011;55283;51.466;5.478;2023-04-15T14:54:51;1.23;;;0.90;;
68365;SDS011;55283;51.466;5.478;2023-04-15T14:57:17;1.73;;;0.80;;
68365;SDS011;55283;51.466;5.478;2023-04-15T14:59:42;1.00;;;0.90;;
68365;SDS011;55283;51.466;5.478;2023-04-15T15:02:08;1.52;;;0.90;;
68365;SDS011;55283;51.466;5.478;2023-04-15T15:04:33;0.83;;;0.80;;